sensor_id;sensor_type;location;lat;lon;timestamp;P1;durP1;ratioP1;P2;durP2;ratioP2
59338;SDS011;45117;50.960;5.500;2023-05-19T00:00:42;11.38;;;6.57;;
59338;SDS011;45117;50.960;5.500;2023-05-19T00:03:10;13.70;;;6.35;;
59338;SDS011;45117;50.960;5.500;2023-05-19T00:05:38;12.40;;;5.45;;
59338;SDS011;45117;50.960;5.500;2023-05-19T00:08:10;12.00;;;6.03;;
59338;SDS011;45117;50.960;5.500;2023-05-19T00:10:38;12.50;;;6.50;;
59338;SDS011;45117;50.960;5.500;2023-05-19T00:13:05;14.73;;;6.25;;
59338;SDS011;45117;50.960;5.500;2023-05-19T00:15:32;13.85;;;6.35;;
59338;SDS011;45117;50.960;5.500;2023-05-19T00:17:59;17.70;;;6.93;;
59338;SDS011;45117;50.960;5.500;2023-05-19T00:20:26;11.65;;;5.97;;
59338;SDS011;45117;50.960;5.500;2023-05-19T00:22:53;15.70;;;6.25;;
59338;SDS011;45117;50.960;5.500;2023-05-19T00:25:20;14.85;;;6.43;;
59338;SDS011;45117;50.960;5.500;2023-05-19T00:27:46;15.48;;;6.50;;
59338;SDS011;45117;50.960;5.500;2023-05-19T00:30:13;15.02;;;6.57;;
59338;SDS011;45117;50.960;5.500;2023-05-19T00:32:40;12.15;;;6.18;;
59338;SDS011;45117;50.960;5.500;2023-05-19T00:35:07;13.85;;;6.75;;
59338;SDS011;45117;50.960;5.500;2023-05-19T00:37:34;14.63;;;6.80;;
59338;SDS011;45117;50.960;5.500;2023-05-19T00:40:02;13.70;;;6.57;;
59338;SDS011;45117;50.960;5.500;2023-05-19T00:42:30;11.50;;;6.28;;
59338;SDS011;45117;50.960;5.500;2023-05-19T00:44:57;11.15;;;5.60;;
59338;SDS011;45117;50.960;5.500;2023-05-19T00:47:23;13.50;;;6.95;;
59338;SDS011;45117;50.960;5.500;2023-05-19T00:49:50;12.20;;;5.18;;
59338;SDS011;45117;50.960;5.500;2023-05-19T00:52:16;12.95;;;6.15;;
59338;SDS011;45117;50.960;5.500;2023-05-19T00:54:43;14.98;;;6.65;;
59338;SDS011;45117;50.960;5.500;2023-05-19T00:57:12;13.98;;;6.78;;
59338;SDS011;45117;50.960;5.500;2023-05-19T00:59:39;17.52;;;6.97;;
59338;SDS011;45117;50.960;5.500;2023-05-19T01:02:06;16.02;;;6.85;;
59338;SDS011;45117;50.960;5.500;2023-05-19T01:04:32;15.23;;;6.63;;
59338;SDS011;45117;50.960;5.500;2023-05-19T01:07:03;13.57;;;6.82;;
59338;SDS011;45117;50.960;5.500;2023-05-19T01:09:30;13.73;;;6.75;;
59338;SDS011;45117;50.960;5.500;2023-05-19T01:11:57;15.75;;;6.57;;
59338;SDS011;45117;50.960;5.500;2023-05-19T01:14:25;12.98;;;6.07;;
59338;SDS011;45117;50.960;5.500;2023-05-19T01:16:57;15.02;;;6.72;;
59338;SDS011;45117;50.960;5.500;2023-05-19T01:19:40;14.80;;;6.72;;
59338;SDS011;45117;50.960;5.500;2023-05-19T01:22:26;14.38;;;6.63;;
59338;SDS011;45117;50.960;5.500;2023-05-19T01:25:21;14.13;;;7.25;;
59338;SDS011;45117;50.960;5.500;2023-05-19T01:30:58;16.35;;;7.53;;
59338;SDS011;45117;50.960;5.500;2023-05-19T01:33:26;16.58;;;6.82;;
59338;SDS011;45117;50.960;5.500;2023-05-19T01:35:54;13.80;;;6.90;;
59338;SDS011;45117;50.960;5.500;2023-05-19T01:38:22;16.45;;;7.05;;
59338;SDS011;45117;50.960;5.500;2023-05-19T01:40:50;21.95;;;7.72;;
59338;SDS011;45117;50.960;5.500;2023-05-19T01:43:20;15.50;;;6.90;;
59338;SDS011;45117;50.960;5.500;2023-05-19T01:45:49;10.80;;;6.65;;
59338;SDS011;45117;50.960;5.500;2023-05-19T01:48:18;16.33;;;7.47;;
59338;SDS011;45117;50.960;5.500;2023-05-19T01:50:45;10.80;;;6.68;;
59338;SDS011;45117;50.960;5.500;2023-05-19T01:53:12;15.73;;;6.65;;
59338;SDS011;45117;50.960;5.500;2023-05-19T01:55:41;15.18;;;7.38;;
59338;SDS011;45117;50.960;5.500;2023-05-19T01:58:09;15.27;;;7.07;;
59338;SDS011;45117;50.960;5.500;2023-05-19T02:00:45;15.35;;;8.25;;
59338;SDS011;45117;50.960;5.500;2023-05-19T02:03:23;17.33;;;7.95;;
59338;SDS011;45117;50.960;5.500;2023-05-19T02:05:58;13.70;;;7.22;;
59338;SDS011;45117;50.960;5.500;2023-05-19T02:08:36;13.80;;;7.28;;
59338;SDS011;45117;50.960;5.500;2023-05-19T02:11:10;15.65;;;7.38;;
59338;SDS011;45117;50.960;5.500;2023-05-19T02:13:44;14.18;;;6.78;;
59338;SDS011;45117;50.960;5.500;2023-05-19T02:16:15;14.07;;;7.75;;
59338;SDS011;45117;50.960;5.500;2023-05-19T02:18:43;12.57;;;6.75;;
59338;SDS011;45117;50.960;5.500;2023-05-19T02:21:12;15.93;;;7.22;;
59338;SDS011;45117;50.960;5.500;2023-05-19T02:23:38;20.63;;;7.20;;
59338;SDS011;45117;50.960;5.500;2023-05-19T02:26:05;11.75;;;7.45;;
59338;SDS011;45117;50.960;5.500;2023-05-19T02:28:32;13.88;;;7.28;;
59338;SDS011;45117;50.960;5.500;2023-05-19T02:30:59;18.42;;;7.57;;
59338;SDS011;45117;50.960;5.500;2023-05-19T02:33:25;15.20;;;7.45;;
59338;SDS011;45117;50.960;5.500;2023-05-19T02:35:55;12.80;;;6.28;;
59338;SDS011;45117;50.960;5.500;2023-05-19T02:38:22;12.15;;;7.00;;
59338;SDS011;45117;50.960;5.500;2023-05-19T02:40:49;19.08;;;7.13;;
59338;SDS011;45117;50.960;5.500;2023-05-19T02:43:16;13.48;;;7.55;;
59338;SDS011;45117;50.960;5.500;2023-05-19T02:45:42;17.77;;;6.85;;
59338;SDS011;45117;50.960;5.500;2023-05-19T02:48:09;14.55;;;7.10;;
59338;SDS011;45117;50.960;5.500;2023-05-19T02:50:35;16.95;;;7.60;;
59338;SDS011;45117;50.960;5.500;2023-05-19T02:53:03;15.57;;;7.78;;
59338;SDS011;45117;50.960;5.500;2023-05-19T02:55:30;13.05;;;7.05;;
59338;SDS011;45117;50.960;5.500;2023-05-19T02:57:56;15.68;;;6.25;;
59338;SDS011;45117;50.960;5.500;2023-05-19T03:00:23;14.13;;;6.85;;
59338;SDS011;45117;50.960;5.500;2023-05-19T03:02:49;14.95;;;8.10;;
59338;SDS011;45117;50.960;5.500;2023-05-19T03:05:17;20.20;;;7.78;;
59338;SDS011;45117;50.960;5.500;2023-05-19T03:07:44;12.02;;;6.70;;
59338;SDS011;45117;50.960;5.500;2023-05-19T03:10:12;18.45;;;7.78;;
59338;SDS011;45117;50.960;5.500;2023-05-19T03:12:38;13.15;;;7.20;;
59338;SDS011;45117;50.960;5.500;2023-05-19T03:15:05;13.60;;;6.70;;
59338;SDS011;45117;50.960;5.500;2023-05-19T03:17:32;15.57;;;7.68;;
59338;SDS011;45117;50.960;5.500;2023-05-19T03:20:00;14.30;;;6.65;;
59338;SDS011;45117;50.960;5.500;2023-05-19T03:22:27;18.20;;;7.15;;
59338;SDS011;45117;50.960;5.500;2023-05-19T03:24:53;13.95;;;7.13;;
59338;SDS011;45117;50.960;5.500;2023-05-19T03:27:21;13.00;;;7.28;;
59338;SDS011;45117;50.960;5.500;2023-05-19T03:29:47;13.25;;;6.95;;
59338;SDS011;45117;50.960;5.500;2023-05-19T03:32:15;18.23;;;7.75;;
59338;SDS011;45117;50.960;5.500;2023-05-19T03:34:42;17.08;;;8.15;;
59338;SDS011;45117;50.960;5.500;2023-05-19T03:37:08;14.60;;;7.15;;
59338;SDS011;45117;50.960;5.500;2023-05-19T03:39:36;15.75;;;7.32;;
59338;SDS011;45117;50.960;5.500;2023-05-19T03:42:03;13.98;;;6.10;;
59338;SDS011;45117;50.960;5.500;2023-05-19T03:44:31;14.10;;;7.20;;
59338;SDS011;45117;50.960;5.500;2023-05-19T03:46:57;11.98;;;7.05;;
59338;SDS011;45117;50.960;5.500;2023-05-19T03:49:24;14.10;;;7.25;;
59338;SDS011;45117;50.960;5.500;2023-05-19T03:51:50;16.48;;;7.38;;
59338;SDS011;45117;50.960;5.500;2023-05-19T03:54:17;13.60;;;6.75;;
59338;SDS011;45117;50.960;5.500;2023-05-19T03:56:45;14.68;;;6.82;;
59338;SDS011;45117;50.960;5.500;2023-05-19T03:59:11;17.35;;;7.20;;
59338;SDS011;45117;50.960;5.500;2023-05-19T04:01:39;16.92;;;7.07;;
59338;SDS011;45117;50.960;5.500;2023-05-19T04:04:05;17.98;;;7.78;;
59338;SDS011;45117;50.960;5.500;2023-05-19T04:06:32;16.92;;;7.13;;
59338;SDS011;45117;50.960;5.500;2023-05-19T04:09:00;13.80;;;6.88;;
59338;SDS011;45117;50.960;5.500;2023-05-19T04:11:27;18.00;;;7.07;;
59338;SDS011;45117;50.960;5.500;2023-05-19T04:13:54;16.65;;;7.30;;
59338;SDS011;45117;50.960;5.500;2023-05-19T04:16:20;16.90;;;6.95;;
59338;SDS011;45117;50.960;5.500;2023-05-19T04:18:48;17.52;;;8.18;;
59338;SDS011;45117;50.960;5.500;2023-05-19T04:21:15;14.35;;;6.00;;
59338;SDS011;45117;50.960;5.500;2023-05-19T04:23:41;13.23;;;7.03;;
59338;SDS011;45117;50.960;5.500;2023-05-19T04:26:08;15.52;;;7.47;;
59338;SDS011;45117;50.960;5.500;2023-05-19T04:28:34;18.23;;;7.38;;
59338;SDS011;45117;50.960;5.500;2023-05-19T04:31:03;17.00;;;6.95;;
59338;SDS011;45117;50.960;5.500;2023-05-19T04:33:34;15.60;;;6.47;;
59338;SDS011;45117;50.960;5.500;2023-05-19T04:36:02;16.13;;;7.40;;
59338;SDS011;45117;50.960;5.500;2023-05-19T04:38:32;14.65;;;7.18;;
59338;SDS011;45117;50.960;5.500;2023-05-19T04:40:58;18.48;;;6.78;;
59338;SDS011;45117;50.960;5.500;2023-05-19T04:43:25;16.17;;;7.15;;
59338;SDS011;45117;50.960;5.500;2023-05-19T04:45:52;16.33;;;7.28;;
59338;SDS011;45117;50.960;5.500;2023-05-19T04:48:19;13.70;;;6.95;;
59338;SDS011;45117;50.960;5.500;2023-05-19T04:50:47;20.27;;;7.60;;
59338;SDS011;45117;50.960;5.500;2023-05-19T04:53:15;13.25;;;7.05;;
59338;SDS011;45117;50.960;5.500;2023-05-19T04:55:41;13.23;;;7.03;;
59338;SDS011;45117;50.960;5.500;2023-05-19T04:58:08;14.73;;;6.78;;
59338;SDS011;45117;50.960;5.500;2023-05-19T05:00:35;12.40;;;6.53;;
59338;SDS011;45117;50.960;5.500;2023-05-19T05:03:02;14.65;;;5.63;;
59338;SDS011;45117;50.960;5.500;2023-05-19T05:05:31;13.18;;;5.63;;
59338;SDS011;45117;50.960;5.500;2023-05-19T05:07:57;14.85;;;5.97;;
59338;SDS011;45117;50.960;5.500;2023-05-19T05:10:25;13.13;;;5.05;;
59338;SDS011;45117;50.960;5.500;2023-05-19T05:12:52;12.43;;;5.30;;
59338;SDS011;45117;50.960;5.500;2023-05-19T05:15:20;6.78;;;4.55;;
59338;SDS011;45117;50.960;5.500;2023-05-19T05:17:48;12.27;;;4.75;;
59338;SDS011;45117;50.960;5.500;2023-05-19T05:20:15;10.10;;;4.85;;
59338;SDS011;45117;50.960;5.500;2023-05-19T05:22:43;10.75;;;4.68;;
59338;SDS011;45117;50.960;5.500;2023-05-19T05:25:11;10.10;;;4.82;;
59338;SDS011;45117;50.960;5.500;2023-05-19T05:27:40;9.98;;;3.92;;
59338;SDS011;45117;50.960;5.500;2023-05-19T05:30:06;8.68;;;4.38;;
59338;SDS011;45117;50.960;5.500;2023-05-19T05:32:33;9.02;;;4.88;;
59338;SDS011;45117;50.960;5.500;2023-05-19T05:35:00;9.90;;;4.40;;
59338;SDS011;45117;50.960;5.500;2023-05-19T05:37:26;10.50;;;4.55;;
59338;SDS011;45117;50.960;5.500;2023-05-19T05:39:53;10.57;;;4.70;;
59338;SDS011;45117;50.960;5.500;2023-05-19T05:42:20;9.40;;;4.05;;
59338;SDS011;45117;50.960;5.500;2023-05-19T05:44:47;9.15;;;4.57;;
59338;SDS011;45117;50.960;5.500;2023-05-19T05:47:14;11.52;;;4.30;;
59338;SDS011;45117;50.960;5.500;2023-05-19T05:49:41;9.68;;;4.07;;
59338;SDS011;45117;50.960;5.500;2023-05-19T05:52:09;11.70;;;4.88;;
59338;SDS011;45117;50.960;5.500;2023-05-19T05:54:37;9.30;;;4.20;;
59338;SDS011;45117;50.960;5.500;2023-05-19T05:57:04;11.20;;;4.22;;
59338;SDS011;45117;50.960;5.500;2023-05-19T05:59:31;11.35;;;4.72;;
59338;SDS011;45117;50.960;5.500;2023-05-19T06:02:00;9.73;;;4.63;;
59338;SDS011;45117;50.960;5.500;2023-05-19T06:04:26;6.75;;;3.60;;
59338;SDS011;45117;50.960;5.500;2023-05-19T06:06:53;8.48;;;3.78;;
59338;SDS011;45117;50.960;5.500;2023-05-19T06:09:24;9.80;;;4.45;;
59338;SDS011;45117;50.960;5.500;2023-05-19T06:11:51;8.68;;;4.60;;
59338;SDS011;45117;50.960;5.500;2023-05-19T06:14:17;8.80;;;4.53;;
59338;SDS011;45117;50.960;5.500;2023-05-19T06:16:44;8.23;;;4.10;;
59338;SDS011;45117;50.960;5.500;2023-05-19T06:19:13;7.47;;;4.07;;
59338;SDS011;45117;50.960;5.500;2023-05-19T06:21:40;11.43;;;4.40;;
59338;SDS011;45117;50.960;5.500;2023-05-19T06:24:07;11.38;;;4.13;;
59338;SDS011;45117;50.960;5.500;2023-05-19T06:26:33;10.32;;;4.00;;
59338;SDS011;45117;50.960;5.500;2023-05-19T06:29:00;7.53;;;3.90;;
59338;SDS011;45117;50.960;5.500;2023-05-19T06:31:27;8.82;;;3.83;;
59338;SDS011;45117;50.960;5.500;2023-05-19T06:33:53;20.33;;;4.10;;
59338;SDS011;45117;50.960;5.500;2023-05-19T06:36:21;9.85;;;4.10;;
59338;SDS011;45117;50.960;5.500;2023-05-19T06:38:48;9.80;;;3.72;;
59338;SDS011;45117;50.960;5.500;2023-05-19T06:41:14;9.23;;;3.75;;
59338;SDS011;45117;50.960;5.500;2023-05-19T06:43:41;9.65;;;3.78;;
59338;SDS011;45117;50.960;5.500;2023-05-19T06:46:08;9.13;;;3.58;;
59338;SDS011;45117;50.960;5.500;2023-05-19T06:48:34;11.73;;;4.20;;
59338;SDS011;45117;50.960;5.500;2023-05-19T06:51:01;8.00;;;3.78;;
59338;SDS011;45117;50.960;5.500;2023-05-19T06:53:29;7.05;;;3.70;;
59338;SDS011;45117;50.960;5.500;2023-05-19T06:55:55;9.93;;;3.80;;
59338;SDS011;45117;50.960;5.500;2023-05-19T06:58:22;7.97;;;3.50;;
59338;SDS011;45117;50.960;5.500;2023-05-19T07:00:48;7.20;;;3.15;;
59338;SDS011;45117;50.960;5.500;2023-05-19T07:03:15;9.48;;;3.60;;
59338;SDS011;45117;50.960;5.500;2023-05-19T07:05:41;6.20;;;3.25;;
59338;SDS011;45117;50.960;5.500;2023-05-19T07:08:08;8.30;;;3.00;;
59338;SDS011;45117;50.960;5.500;2023-05-19T07:10:36;8.25;;;3.50;;
59338;SDS011;45117;50.960;5.500;2023-05-19T07:13:02;8.88;;;3.10;;
59338;SDS011;45117;50.960;5.500;2023-05-19T07:15:29;11.00;;;3.65;;
59338;SDS011;45117;50.960;5.500;2023-05-19T07:17:57;5.07;;;2.70;;
59338;SDS011;45117;50.960;5.500;2023-05-19T07:20:23;10.45;;;3.00;;
59338;SDS011;45117;50.960;5.500;2023-05-19T07:22:50;7.47;;;2.65;;
59338;SDS011;45117;50.960;5.500;2023-05-19T07:25:16;7.20;;;3.42;;
59338;SDS011;45117;50.960;5.500;2023-05-19T07:27:44;10.48;;;3.17;;
59338;SDS011;45117;50.960;5.500;2023-05-19T07:30:11;9.95;;;3.40;;
59338;SDS011;45117;50.960;5.500;2023-05-19T07:32:38;11.98;;;3.30;;
59338;SDS011;45117;50.960;5.500;2023-05-19T07:35:04;7.03;;;3.00;;
59338;SDS011;45117;50.960;5.500;2023-05-19T07:37:31;8.68;;;3.08;;
59338;SDS011;45117;50.960;5.500;2023-05-19T07:39:58;7.28;;;2.78;;
59338;SDS011;45117;50.960;5.500;2023-05-19T07:42:25;7.00;;;2.70;;
59338;SDS011;45117;50.960;5.500;2023-05-19T07:44:52;7.60;;;2.65;;
59338;SDS011;45117;50.960;5.500;2023-05-19T07:47:19;8.02;;;2.85;;
59338;SDS011;45117;50.960;5.500;2023-05-19T07:49:45;6.50;;;2.33;;
59338;SDS011;45117;50.960;5.500;2023-05-19T07:52:12;7.07;;;2.35;;
59338;SDS011;45117;50.960;5.500;2023-05-19T07:54:38;7.65;;;2.50;;
59338;SDS011;45117;50.960;5.500;2023-05-19T07:57:05;4.93;;;2.20;;
59338;SDS011;45117;50.960;5.500;2023-05-19T07:59:31;8.63;;;2.45;;
59338;SDS011;45117;50.960;5.500;2023-05-19T08:01:59;5.60;;;2.30;;
59338;SDS011;45117;50.960;5.500;2023-05-19T08:04:26;9.18;;;2.42;;
59338;SDS011;45117;50.960;5.500;2023-05-19T08:06:52;4.82;;;2.10;;
59338;SDS011;45117;50.960;5.500;2023-05-19T08:09:19;7.43;;;2.22;;
59338;SDS011;45117;50.960;5.500;2023-05-19T08:11:45;8.02;;;2.15;;
59338;SDS011;45117;50.960;5.500;2023-05-19T08:14:12;6.30;;;1.98;;
59338;SDS011;45117;50.960;5.500;2023-05-19T08:16:38;5.03;;;2.35;;
59338;SDS011;45117;50.960;5.500;2023-05-19T08:19:08;5.68;;;2.17;;
59338;SDS011;45117;50.960;5.500;2023-05-19T08:21:34;6.75;;;2.25;;
59338;SDS011;45117;50.960;5.500;2023-05-19T08:24:01;5.53;;;2.10;;
59338;SDS011;45117;50.960;5.500;2023-05-19T08:26:28;5.90;;;2.45;;
59338;SDS011;45117;50.960;5.500;2023-05-19T08:28:54;6.88;;;2.70;;
59338;SDS011;45117;50.960;5.500;2023-05-19T08:31:21;8.75;;;2.50;;
59338;SDS011;45117;50.960;5.500;2023-05-19T08:33:48;7.93;;;2.90;;
59338;SDS011;45117;50.960;5.500;2023-05-19T08:36:16;7.05;;;2.67;;
59338;SDS011;45117;50.960;5.500;2023-05-19T08:38:43;7.43;;;2.13;;
59338;SDS011;45117;50.960;5.500;2023-05-19T08:41:10;6.28;;;1.90;;
59338;SDS011;45117;50.960;5.500;2023-05-19T08:43:36;8.45;;;2.38;;
59338;SDS011;45117;50.960;5.500;2023-05-19T08:46:03;4.78;;;1.95;;
59338;SDS011;45117;50.960;5.500;2023-05-19T08:48:32;5.85;;;2.10;;
59338;SDS011;45117;50.960;5.500;2023-05-19T08:51:05;4.72;;;1.90;;
59338;SDS011;45117;50.960;5.500;2023-05-19T08:53:39;4.95;;;1.83;;
59338;SDS011;45117;50.960;5.500;2023-05-19T08:56:10;6.28;;;2.03;;
59338;SDS011;45117;50.960;5.500;2023-05-19T08:58:39;8.70;;;1.88;;
59338;SDS011;45117;50.960;5.500;2023-05-19T09:01:08;5.22;;;1.77;;
59338;SDS011;45117;50.960;5.500;2023-05-19T09:03:35;3.60;;;1.50;;
59338;SDS011;45117;50.960;5.500;2023-05-19T09:06:04;7.20;;;2.00;;
59338;SDS011;45117;50.960;5.500;2023-05-19T09:08:31;6.15;;;2.00;;
59338;SDS011;45117;50.960;5.500;2023-05-19T09:10:59;6.07;;;1.90;;
59338;SDS011;45117;50.960;5.500;2023-05-19T09:13:25;5.85;;;1.70;;
59338;SDS011;45117;50.960;5.500;2023-05-19T09:15:52;3.58;;;1.10;;
59338;SDS011;45117;50.960;5.500;2023-05-19T09:18:18;7.70;;;1.80;;
59338;SDS011;45117;50.960;5.500;2023-05-19T09:20:45;6.10;;;1.70;;
59338;SDS011;45117;50.960;5.500;2023-05-19T09:23:12;7.80;;;1.63;;
59338;SDS011;45117;50.960;5.500;2023-05-19T09:25:45;8.65;;;1.80;;
59338;SDS011;45117;50.960;5.500;2023-05-19T09:28:13;6.80;;;1.98;;
59338;SDS011;45117;50.960;5.500;2023-05-19T09:30:47;3.92;;;1.60;;
59338;SDS011;45117;50.960;5.500;2023-05-19T09:33:15;10.55;;;1.90;;
59338;SDS011;45117;50.960;5.500;2023-05-19T09:35:45;5.32;;;1.40;;
59338;SDS011;45117;50.960;5.500;2023-05-19T09:38:15;5.32;;;1.40;;
59338;SDS011;45117;50.960;5.500;2023-05-19T09:40:42;4.10;;;1.80;;
59338;SDS011;45117;50.960;5.500;2023-05-19T09:43:09;8.45;;;2.05;;
59338;SDS011;45117;50.960;5.500;2023-05-19T09:45:38;4.95;;;1.80;;
59338;SDS011;45117;50.960;5.500;2023-05-19T09:48:04;5.28;;;2.28;;
59338;SDS011;45117;50.960;5.500;2023-05-19T09:50:31;5.43;;;1.73;;
59338;SDS011;45117;50.960;5.500;2023-05-19T09:52:58;5.60;;;1.70;;
59338;SDS011;45117;50.960;5.500;2023-05-19T09:55:25;5.35;;;2.08;;
59338;SDS011;45117;50.960;5.500;2023-05-19T09:57:54;7.50;;;1.90;;
59338;SDS011;45117;50.960;5.500;2023-05-19T10:00:21;6.10;;;1.80;;
59338;SDS011;45117;50.960;5.500;2023-05-19T10:02:49;5.35;;;2.10;;
59338;SDS011;45117;50.960;5.500;2023-05-19T10:05:16;6.35;;;1.60;;
59338;SDS011;45117;50.960;5.500;2023-05-19T10:07:44;6.13;;;1.80;;
59338;SDS011;45117;50.960;5.500;2023-05-19T10:10:12;12.32;;;1.90;;
59338;SDS011;45117;50.960;5.500;2023-05-19T10:12:40;4.68;;;1.70;;
59338;SDS011;45117;50.960;5.500;2023-05-19T10:15:08;4.97;;;2.03;;
59338;SDS011;45117;50.960;5.500;2023-05-19T10:17:36;9.80;;;2.58;;
59338;SDS011;45117;50.960;5.500;2023-05-19T10:20:05;7.63;;;1.90;;
59338;SDS011;45117;50.960;5.500;2023-05-19T10:22:34;6.22;;;2.00;;
59338;SDS011;45117;50.960;5.500;2023-05-19T10:25:01;6.40;;;2.08;;
59338;SDS011;45117;50.960;5.500;2023-05-19T10:27:28;6.28;;;2.50;;
59338;SDS011;45117;50.960;5.500;2023-05-19T10:29:56;7.85;;;2.55;;
59338;SDS011;45117;50.960;5.500;2023-05-19T10:32:26;6.07;;;2.22;;
59338;SDS011;45117;50.960;5.500;2023-05-19T10:35:11;4.07;;;1.60;;
59338;SDS011;45117;50.960;5.500;2023-05-19T10:37:47;6.85;;;2.00;;
59338;SDS011;45117;50.960;5.500;2023-05-19T10:40:21;6.13;;;2.30;;
59338;SDS011;45117;50.960;5.500;2023-05-19T10:42:56;7.05;;;2.00;;
59338;SDS011;45117;50.960;5.500;2023-05-19T10:45:32;10.23;;;2.33;;
59338;SDS011;45117;50.960;5.500;2023-05-19T10:48:01;7.65;;;2.75;;
59338;SDS011;45117;50.960;5.500;2023-05-19T10:50:33;9.02;;;2.25;;
59338;SDS011;45117;50.960;5.500;2023-05-19T10:53:01;6.25;;;2.20;;
59338;SDS011;45117;50.960;5.500;2023-05-19T10:58:12;7.85;;;2.10;;
59338;SDS011;45117;50.960;5.500;2023-05-19T11:00:39;6.40;;;1.80;;
59338;SDS011;45117;50.960;5.500;2023-05-19T11:03:12;7.10;;;1.95;;
59338;SDS011;45117;50.960;5.500;2023-05-19T11:05:41;7.28;;;2.22;;
59338;SDS011;45117;50.960;5.500;2023-05-19T11:08:09;6.30;;;1.92;;
59338;SDS011;45117;50.960;5.500;2023-05-19T11:10:36;7.00;;;2.35;;
59338;SDS011;45117;50.960;5.500;2023-05-19T11:13:03;8.38;;;2.10;;
59338;SDS011;45117;50.960;5.500;2023-05-19T11:15:33;6.22;;;1.70;;
59338;SDS011;45117;50.960;5.500;2023-05-19T11:18:00;6.28;;;1.90;;
59338;SDS011;45117;50.960;5.500;2023-05-19T11:20:27;5.80;;;2.10;;
59338;SDS011;45117;50.960;5.500;2023-05-19T11:23:05;6.43;;;1.90;;
59338;SDS011;45117;50.960;5.500;2023-05-19T11:25:42;7.50;;;2.40;;
59338;SDS011;45117;50.960;5.500;2023-05-19T11:28:09;9.45;;;2.63;;
59338;SDS011;45117;50.960;5.500;2023-05-19T11:30:37;8.40;;;2.35;;
59338;SDS011;45117;50.960;5.500;2023-05-19T11:33:05;6.22;;;1.98;;
59338;SDS011;45117;50.960;5.500;2023-05-19T11:35:32;5.38;;;1.98;;
59338;SDS011;45117;50.960;5.500;2023-05-19T11:38:00;6.25;;;2.10;;
59338;SDS011;45117;50.960;5.500;2023-05-19T11:40:28;8.10;;;2.15;;
59338;SDS011;45117;50.960;5.500;2023-05-19T11:42:56;6.28;;;2.13;;
59338;SDS011;45117;50.960;5.500;2023-05-19T11:45:23;6.43;;;2.03;;
59338;SDS011;45117;50.960;5.500;2023-05-19T11:47:50;4.85;;;1.77;;
59338;SDS011;45117;50.960;5.500;2023-05-19T11:50:17;6.43;;;1.75;;
59338;SDS011;45117;50.960;5.500;2023-05-19T11:52:44;6.57;;;1.80;;
59338;SDS011;45117;50.960;5.500;2023-05-19T11:55:14;7.55;;;1.95;;
59338;SDS011;45117;50.960;5.500;2023-05-19T11:57:42;8.40;;;1.92;;
59338;SDS011;45117;50.960;5.500;2023-05-19T12:00:22;7.47;;;1.60;;
59338;SDS011;45117;50.960;5.500;2023-05-19T12:02:49;6.22;;;2.03;;
59338;SDS011;45117;50.960;5.500;2023-05-19T12:05:19;8.18;;;1.80;;
59338;SDS011;45117;50.960;5.500;2023-05-19T12:07:47;7.20;;;2.08;;
59338;SDS011;45117;50.960;5.500;2023-05-19T12:10:15;6.47;;;1.85;;
59338;SDS011;45117;50.960;5.500;2023-05-19T12:12:45;3.95;;;1.60;;
59338;SDS011;45117;50.960;5.500;2023-05-19T12:15:13;6.13;;;1.70;;
59338;SDS011;45117;50.960;5.500;2023-05-19T12:17:40;5.95;;;1.85;;
59338;SDS011;45117;50.960;5.500;2023-05-19T12:20:07;5.38;;;1.77;;
59338;SDS011;45117;50.960;5.500;2023-05-19T12:22:34;5.97;;;1.55;;
59338;SDS011;45117;50.960;5.500;2023-05-19T12:25:01;5.28;;;1.63;;
59338;SDS011;45117;50.960;5.500;2023-05-19T12:27:29;6.40;;;1.67;;
59338;SDS011;45117;50.960;5.500;2023-05-19T12:29:57;4.32;;;1.60;;
59338;SDS011;45117;50.960;5.500;2023-05-19T12:32:24;4.30;;;1.67;;
59338;SDS011;45117;50.960;5.500;2023-05-19T12:34:51;5.88;;;1.80;;
59338;SDS011;45117;50.960;5.500;2023-05-19T12:37:18;6.55;;;1.80;;
59338;SDS011;45117;50.960;5.500;2023-05-19T12:39:45;8.05;;;2.35;;
59338;SDS011;45117;50.960;5.500;2023-05-19T12:42:14;6.68;;;1.60;;
59338;SDS011;45117;50.960;5.500;2023-05-19T12:44:41;4.32;;;1.52;;
59338;SDS011;45117;50.960;5.500;2023-05-19T12:47:12;20.58;;;1.70;;
59338;SDS011;45117;50.960;5.500;2023-05-19T12:49:52;7.18;;;1.85;;
59338;SDS011;45117;50.960;5.500;2023-05-19T12:52:19;6.50;;;1.85;;
59338;SDS011;45117;50.960;5.500;2023-05-19T12:54:47;4.45;;;1.60;;
59338;SDS011;45117;50.960;5.500;2023-05-19T12:57:15;4.63;;;1.65;;
59338;SDS011;45117;50.960;5.500;2023-05-19T12:59:41;8.43;;;1.67;;
59338;SDS011;45117;50.960;5.500;2023-05-19T13:02:08;5.63;;;1.50;;
59338;SDS011;45117;50.960;5.500;2023-05-19T13:04:36;7.53;;;1.75;;
59338;SDS011;45117;50.960;5.500;2023-05-19T13:07:02;4.03;;;1.33;;
59338;SDS011;45117;50.960;5.500;2023-05-19T13:09:29;3.17;;;1.40;;
59338;SDS011;45117;50.960;5.500;2023-05-19T13:11:59;7.28;;;1.50;;
59338;SDS011;45117;50.960;5.500;2023-05-19T13:14:25;3.95;;;1.35;;
59338;SDS011;45117;50.960;5.500;2023-05-19T13:16:52;8.60;;;1.90;;
59338;SDS011;45117;50.960;5.500;2023-05-19T13:19:18;6.97;;;1.80;;
59338;SDS011;45117;50.960;5.500;2023-05-19T13:21:46;6.70;;;1.88;;
59338;SDS011;45117;50.960;5.500;2023-05-19T13:24:14;6.03;;;1.80;;
59338;SDS011;45117;50.960;5.500;2023-05-19T13:26:40;5.40;;;1.95;;
59338;SDS011;45117;50.960;5.500;2023-05-19T13:29:07;5.60;;;1.48;;
59338;SDS011;45117;50.960;5.500;2023-05-19T13:31:35;5.10;;;2.08;;
59338;SDS011;45117;50.960;5.500;2023-05-19T13:34:02;5.65;;;2.08;;
59338;SDS011;45117;50.960;5.500;2023-05-19T13:36:28;4.63;;;1.52;;
59338;SDS011;45117;50.960;5.500;2023-05-19T13:38:58;6.40;;;1.77;;
59338;SDS011;45117;50.960;5.500;2023-05-19T13:41:24;5.20;;;1.52;;
59338;SDS011;45117;50.960;5.500;2023-05-19T13:43:53;4.03;;;1.70;;
59338;SDS011;45117;50.960;5.500;2023-05-19T13:46:19;4.45;;;1.70;;
59338;SDS011;45117;50.960;5.500;2023-05-19T13:48:46;6.10;;;1.75;;
59338;SDS011;45117;50.960;5.500;2023-05-19T13:51:12;5.07;;;1.88;;
59338;SDS011;45117;50.960;5.500;2023-05-19T13:53:39;7.50;;;1.92;;
59338;SDS011;45117;50.960;5.500;2023-05-19T13:56:07;6.38;;;1.90;;
59338;SDS011;45117;50.960;5.500;2023-05-19T13:58:34;5.75;;;1.75;;
59338;SDS011;45117;50.960;5.500;2023-05-19T14:01:00;5.28;;;1.85;;
59338;SDS011;45117;50.960;5.500;2023-05-19T14:03:27;5.40;;;1.80;;
59338;SDS011;45117;50.960;5.500;2023-05-19T14:05:54;6.95;;;1.98;;
59338;SDS011;45117;50.960;5.500;2023-05-19T14:08:20;9.02;;;1.80;;
59338;SDS011;45117;50.960;5.500;2023-05-19T14:13:16;6.53;;;1.80;;
59338;SDS011;45117;50.960;5.500;2023-05-19T14:15:43;5.60;;;1.77;;
59338;SDS011;45117;50.960;5.500;2023-05-19T14:18:09;7.32;;;2.10;;
59338;SDS011;45117;50.960;5.500;2023-05-19T14:20:36;5.40;;;1.88;;
59338;SDS011;45117;50.960;5.500;2023-05-19T14:23:02;4.05;;;1.63;;
59338;SDS011;45117;50.960;5.500;2023-05-19T14:25:29;5.93;;;1.92;;
59338;SDS011;45117;50.960;5.500;2023-05-19T14:27:55;6.15;;;1.65;;
59338;SDS011;45117;50.960;5.500;2023-05-19T14:30:23;4.63;;;1.90;;
59338;SDS011;45117;50.960;5.500;2023-05-19T14:32:50;9.52;;;2.20;;
59338;SDS011;45117;50.960;5.500;2023-05-19T14:35:16;6.70;;;2.15;;
59338;SDS011;45117;50.960;5.500;2023-05-19T14:37:43;6.75;;;2.30;;
59338;SDS011;45117;50.960;5.500;2023-05-19T14:40:10;6.53;;;1.92;;
59338;SDS011;45117;50.960;5.500;2023-05-19T14:42:37;6.20;;;2.50;;
59338;SDS011;45117;50.960;5.500;2023-05-19T14:45:04;10.20;;;2.20;;
59338;SDS011;45117;50.960;5.500;2023-05-19T14:47:32;10.63;;;2.17;;
59338;SDS011;45117;50.960;5.500;2023-05-19T14:49:59;5.13;;;1.63;;
59338;SDS011;45117;50.960;5.500;2023-05-19T14:52:25;6.07;;;2.10;;
59338;SDS011;45117;50.960;5.500;2023-05-19T14:54:52;6.70;;;2.17;;